sensor_id;sensor_type;location;lat;lon;timestamp;pressure;altitude;pressure_sealevel;temperature;humidity
61906;BME280;47863;55.766;37.672;2023-04-22T00:00:48;99376.41;;;8.53;34.78
61906;BME280;47863;55.766;37.672;2023-04-22T00:03:14;99376.19;;;8.47;34.78
61906;BME280;47863;55.766;37.672;2023-04-22T00:05:40;99426.94;;;8.73;34.89
61906;BME280;47863;55.766;37.672;2023-04-22T00:08:07;99404.13;;;8.61;34.99
61906;BME280;47863;55.766;37.672;2023-04-22T00:10:32;99429.91;;;8.70;34.99
61906;BME280;47863;55.766;37.672;2023-04-22T00:12:58;99421.22;;;8.68;35.31
61906;BME280;47863;55.766;37.672;2023-04-22T00:15:24;99407.97;;;8.58;35.24
61906;BME280;47863;55.766;37.672;2023-04-22T00:17:51;99413.47;;;8.57;35.31
61906;BME280;47863;55.766;37.672;2023-04-22T00:20:20;99422.69;;;8.62;35.33
61906;BME280;47863;55.766;37.672;2023-04-22T00:22:46;99424.66;;;8.60;35.28
61906;BME280;47863;55.766;37.672;2023-04-22T00:25:12;99402.66;;;8.40;35.31
61906;BME280;47863;55.766;37.672;2023-04-22T00:27:38;99405.72;;;8.45;35.19
61906;BME280;47863;55.766;37.672;2023-04-22T00:30:04;99414.91;;;8.51;35.28
61906;BME280;47863;55.766;37.672;2023-04-22T00:32:32;99420.09;;;8.52;35.12
61906;BME280;47863;55.766;37.672;2023-04-22T00:34:57;99403.22;;;8.44;34.79
61906;BME280;47863;55.766;37.672;2023-04-22T00:37:24;99424.56;;;8.44;35.18
61906;BME280;47863;55.766;37.672;2023-04-22T00:39:49;99398.19;;;8.23;35.26
61906;BME280;47863;55.766;37.672;2023-04-22T00:42:15;99416.63;;;8.34;35.46
61906;BME280;47863;55.766;37.672;2023-04-22T00:44:41;99400.72;;;8.24;35.68
61906;BME280;47863;55.766;37.672;2023-04-22T00:47:08;99418.63;;;8.32;35.80
61906;BME280;47863;55.766;37.672;2023-04-22T00:49:34;99419.28;;;8.34;35.89
61906;BME280;47863;55.766;37.672;2023-04-22T00:52:01;99336.84;;;7.79;36.25
61906;BME280;47863;55.766;37.672;2023-04-22T00:54:28;99422.25;;;8.31;35.97
61906;BME280;47863;55.766;37.672;2023-04-22T00:56:55;99421.28;;;8.32;36.17
61906;BME280;47863;55.766;37.672;2023-04-22T00:59:22;99421.28;;;8.32;36.34
61906;BME280;47863;55.766;37.672;2023-04-22T01:01:49;99415.22;;;8.22;36.50
61906;BME280;47863;55.766;37.672;2023-04-22T01:04:15;99426.56;;;8.24;36.27
61906;BME280;47863;55.766;37.672;2023-04-22T01:06:42;99398.75;;;8.08;36.92
61906;BME280;47863;55.766;37.672;2023-04-22T01:09:08;99418.50;;;8.16;36.50
61906;BME280;47863;55.766;37.672;2023-04-22T01:11:34;99417.78;;;8.13;36.57
61906;BME280;47863;55.766;37.672;2023-04-22T01:14:02;99413.47;;;8.12;37.20
61906;BME280;47863;55.766;37.672;2023-04-22T01:16:29;99411.94;;;8.10;37.04
61906;BME280;47863;55.766;37.672;2023-04-22T01:18:55;99419.09;;;8.09;37.07
61906;BME280;47863;55.766;37.672;2023-04-22T01:21:21;99416.41;;;8.09;37.08
61906;BME280;47863;55.766;37.672;2023-04-22T01:23:48;99408.75;;;8.06;37.32
61906;BME280;47863;55.766;37.672;2023-04-22T01:26:14;99400.69;;;7.98;36.97
61906;BME280;47863;55.766;37.672;2023-04-22T01:28:40;99357.44;;;7.68;37.76
61906;BME280;47863;55.766;37.672;2023-04-22T01:31:06;99410.66;;;7.96;37.27
61906;BME280;47863;55.766;37.672;2023-04-22T01:33:32;99370.44;;;7.71;37.56
61906;BME280;47863;55.766;37.672;2023-04-22T01:35:58;99406.09;;;7.88;37.90
61906;BME280;47863;55.766;37.672;2023-04-22T01:38:24;99406.25;;;7.87;37.92
61906;BME280;47863;55.766;37.672;2023-04-22T01:40:50;99383.47;;;7.74;37.76
61906;BME280;47863;55.766;37.672;2023-04-22T01:43:15;99408.75;;;7.88;37.83
61906;BME280;47863;55.766;37.672;2023-04-22T01:45:41;99409.59;;;7.89;37.69
61906;BME280;47863;55.766;37.672;2023-04-22T01:48:07;99408.63;;;7.90;37.94
61906;BME280;47863;55.766;37.672;2023-04-22T01:50:32;99396.88;;;7.83;37.58
61906;BME280;47863;55.766;37.672;2023-04-22T01:52:58;99405.25;;;7.88;37.88
61906;BME280;47863;55.766;37.672;2023-04-22T01:55:24;99408.09;;;7.86;38.28
61906;BME280;47863;55.766;37.672;2023-04-22T01:57:49;99411.03;;;7.83;37.84
61906;BME280;47863;55.766;37.672;2023-04-22T02:00:17;99406.03;;;7.80;38.13
61906;BME280;47863;55.766;37.672;2023-04-22T02:02:42;99388.19;;;7.63;38.25
61906;BME280;47863;55.766;37.672;2023-04-22T02:05:08;99406.47;;;7.75;38.32
61906;BME280;47863;55.766;37.672;2023-04-22T02:07:34;99410.28;;;7.73;38.78
61906;BME280;47863;55.766;37.672;2023-04-22T02:10:04;99407.75;;;7.71;38.85
61906;BME280;47863;55.766;37.672;2023-04-22T02:12:33;99406.25;;;7.69;38.74
61906;BME280;47863;55.766;37.672;2023-04-22T02:14:58;99403.88;;;7.66;38.81
61906;BME280;47863;55.766;37.672;2023-04-22T02:17:34;99406.53;;;7.66;39.17
61906;BME280;47863;55.766;37.672;2023-04-22T02:20:01;99401.22;;;7.66;38.78
61906;BME280;47863;55.766;37.672;2023-04-22T02:22:27;99410.75;;;7.68;38.88
61906;BME280;47863;55.766;37.672;2023-04-22T02:24:54;99411.72;;;7.67;38.95
61906;BME280;47863;55.766;37.672;2023-04-22T02:27:20;99407.22;;;7.68;39.42
61906;BME280;47863;55.766;37.672;2023-04-22T02:29:46;99408.91;;;7.69;39.26
61906;BME280;47863;55.766;37.672;2023-04-22T02:32:13;99408.91;;;7.69;39.58
61906;BME280;47863;55.766;37.672;2023-04-22T02:34:39;99411.59;;;7.69;39.64
61906;BME280;47863;55.766;37.672;2023-04-22T02:37:05;99387.25;;;7.54;39.40
61906;BME280;47863;55.766;37.672;2023-04-22T02:39:30;99411.59;;;7.69;39.43
61906;BME280;47863;55.766;37.672;2023-04-22T02:41:56;99414.59;;;7.74;39.66
61906;BME280;47863;55.766;37.672;2023-04-22T02:44:21;99403.72;;;7.67;39.57
61906;BME280;47863;55.766;37.672;2023-04-22T02:46:47;99408.59;;;7.72;39.79
61906;BME280;47863;55.766;37.672;2023-04-22T02:49:12;99413.34;;;7.78;39.88
61906;BME280;47863;55.766;37.672;2023-04-22T02:51:38;99416.50;;;7.82;39.83
61906;BME280;47863;55.766;37.672;2023-04-22T02:54:04;99414.38;;;7.85;39.77
61906;BME280;47863;55.766;37.672;2023-04-22T02:56:29;99418.75;;;7.86;39.66
61906;BME280;47863;55.766;37.672;2023-04-22T02:58:56;99415.94;;;7.88;39.60
61906;BME280;47863;55.766;37.672;2023-04-22T03:01:22;99368.00;;;7.60;39.87
61906;BME280;47863;55.766;37.672;2023-04-22T03:03:47;99405.84;;;7.82;40.07
61906;BME280;47863;55.766;37.672;2023-04-22T03:06:13;99423.47;;;7.92;39.97
61906;BME280;47863;55.766;37.672;2023-04-22T03:08:38;99412.25;;;7.89;40.00
61906;BME280;47863;55.766;37.672;2023-04-22T03:11:04;99384.44;;;7.73;40.43
61906;BME280;47863;55.766;37.672;2023-04-22T03:13:30;99426.66;;;7.96;40.49
61906;BME280;47863;55.766;37.672;2023-04-22T03:15:55;99397.56;;;7.85;40.78
61906;BME280;47863;55.766;37.672;2023-04-22T03:18:21;99427.03;;;8.01;41.22
61906;BME280;47863;55.766;37.672;2023-04-22T03:20:48;99424.91;;;8.05;41.18
61906;BME280;47863;55.766;37.672;2023-04-22T03:23:13;99395.56;;;7.87;41.51
61906;BME280;47863;55.766;37.672;2023-04-22T03:25:39;99422.63;;;8.10;40.83
61906;BME280;47863;55.766;37.672;2023-04-22T03:28:05;99397.63;;;7.93;40.50
61906;BME280;47863;55.766;37.672;2023-04-22T03:30:31;99423.13;;;8.13;40.71
61906;BME280;47863;55.766;37.672;2023-04-22T03:32:57;99432.59;;;8.26;41.11
61906;BME280;47863;55.766;37.672;2023-04-22T03:35:22;99423.91;;;8.24;40.93
61906;BME280;47863;55.766;37.672;2023-04-22T03:37:48;99430.81;;;8.34;40.61
61906;BME280;47863;55.766;37.672;2023-04-22T03:40:14;99418.75;;;8.30;40.89
61906;BME280;47863;55.766;37.672;2023-04-22T03:42:39;99408.91;;;8.31;40.55
61906;BME280;47863;55.766;37.672;2023-04-22T03:45:05;99443.69;;;8.57;40.68
61906;BME280;47863;55.766;37.672;2023-04-22T03:47:31;99427.81;;;8.56;40.84
61906;BME280;47863;55.766;37.672;2023-04-22T03:49:56;99450.09;;;8.72;40.83
61906;BME280;47863;55.766;37.672;2023-04-22T03:52:22;99406.81;;;8.61;40.83
61906;BME280;47863;55.766;37.672;2023-04-22T03:54:48;99442.84;;;8.83;40.96
61906;BME280;47863;55.766;37.672;2023-04-22T03:57:13;99422.47;;;8.82;40.54
61906;BME280;47863;55.766;37.672;2023-04-22T03:59:39;99438.78;;;9.05;40.65
61906;BME280;47863;55.766;37.672;2023-04-22T04:02:05;99451.22;;;9.22;40.19
61906;BME280;47863;55.766;37.672;2023-04-22T04:04:31;99458.91;;;9.33;40.16
61906;BME280;47863;55.766;37.672;2023-04-22T04:06:59;99453.44;;;9.43;40.06
61906;BME280;47863;55.766;37.672;2023-04-22T04:09:25;99437.75;;;9.40;39.73
61906;BME280;47863;55.766;37.672;2023-04-22T04:11:51;99444.78;;;9.49;39.88
61906;BME280;47863;55.766;37.672;2023-04-22T04:14:17;99456.22;;;9.68;39.77
61906;BME280;47863;55.766;37.672;2023-04-22T04:16:43;99438.47;;;9.67;40.00
61906;BME280;47863;55.766;37.672;2023-04-22T04:19:08;99439.50;;;9.74;40.15
61906;BME280;47863;55.766;37.672;2023-04-22T04:21:34;99466.63;;;9.96;39.83
61906;BME280;47863;55.766;37.672;2023-04-22T04:24:02;99465.44;;;10.06;40.05
61906;BME280;47863;55.766;37.672;2023-04-22T04:26:28;99448.91;;;10.19;40.07
61906;BME280;47863;55.766;37.672;2023-04-22T04:28:53;99434.88;;;10.34;39.73
61906;BME280;47863;55.766;37.672;2023-04-22T04:31:20;99463.47;;;10.82;39.65
61906;BME280;47863;55.766;37.672;2023-04-22T04:33:46;99454.06;;;11.34;39.20
61906;BME280;47863;55.766;37.672;2023-04-22T04:36:12;99435.75;;;11.77;39.01
61906;BME280;47863;55.766;37.672;2023-04-22T04:38:37;99451.69;;;12.25;38.19
61906;BME280;47863;55.766;37.672;2023-04-22T04:41:03;99449.41;;;12.37;38.38
61906;BME280;47863;55.766;37.672;2023-04-22T04:43:29;99454.16;;;12.49;38.51
61906;BME280;47863;55.766;37.672;2023-04-22T04:45:54;99448.91;;;12.56;38.93
61906;BME280;47863;55.766;37.672;2023-04-22T04:48:20;99455.59;;;12.75;38.84
61906;BME280;47863;55.766;37.672;2023-04-22T04:50:49;99456.38;;;12.84;38.59
61906;BME280;47863;55.766;37.672;2023-04-22T04:53:19;99447.38;;;12.92;38.63
61906;BME280;47863;55.766;37.672;2023-04-22T04:55:45;99424.28;;;12.82;38.75
61906;BME280;47863;55.766;37.672;2023-04-22T04:58:11;99441.63;;;12.95;38.71
61906;BME280;47863;55.766;37.672;2023-04-22T05:00:37;99456.09;;;13.08;38.64
61906;BME280;47863;55.766;37.672;2023-04-22T05:03:02;99457.50;;;13.19;38.63
61906;BME280;47863;55.766;37.672;2023-04-22T05:05:28;99438.72;;;13.11;38.71
61906;BME280;47863;55.766;37.672;2023-04-22T05:07:54;99460.56;;;13.31;38.44
61906;BME280;47863;55.766;37.672;2023-04-22T05:10:20;99449.44;;;13.34;38.34
61906;BME280;47863;55.766;37.672;2023-04-22T05:12:49;99446.97;;;13.54;38.23
61906;BME280;47863;55.766;37.672;2023-04-22T05:15:15;99478.84;;;13.87;37.93
61906;BME280;47863;55.766;37.672;2023-04-22T05:17:41;99434.66;;;13.81;37.84
61906;BME280;47863;55.766;37.672;2023-04-22T05:20:07;99462.44;;;14.03;37.91
61906;BME280;47863;55.766;37.672;2023-04-22T05:22:33;99473.72;;;14.14;37.92
61906;BME280;47863;55.766;37.672;2023-04-22T05:25:00;99452.13;;;14.07;37.84
61906;BME280;47863;55.766;37.672;2023-04-22T05:27:25;99468.91;;;14.31;37.55
61906;BME280;47863;55.766;37.672;2023-04-22T05:29:51;99450.75;;;14.39;37.41
61906;BME280;47863;55.766;37.672;2023-04-22T05:32:17;99465.91;;;14.62;37.08
61906;BME280;47863;55.766;37.672;2023-04-22T05:34:42;99459.38;;;14.78;36.89
61906;BME280;47863;55.766;37.672;2023-04-22T05:37:08;99463.22;;;14.97;36.62
61906;BME280;47863;55.766;37.672;2023-04-22T05:39:35;99451.69;;;15.10;36.67
61906;BME280;47863;55.766;37.672;2023-04-22T05:42:00;99457.47;;;15.48;36.60
61906;BME280;47863;55.766;37.672;2023-04-22T05:44:27;99464.72;;;15.82;36.59
61906;BME280;47863;55.766;37.672;2023-04-22T05:46:52;99436.72;;;16.03;36.08
61906;BME280;47863;55.766;37.672;2023-04-22T05:49:18;99465.22;;;16.53;36.10
61906;BME280;47863;55.766;37.672;2023-04-22T05:51:44;99449.66;;;16.75;35.73
61906;BME280;47863;55.766;37.672;2023-04-22T05:54:10;99180.53;;;15.34;35.40
61906;BME280;47863;55.766;37.672;2023-04-22T05:56:36;99449.16;;;17.18;34.87
61906;BME280;47863;55.766;37.672;2023-04-22T05:59:01;99470.31;;;17.41;34.90
61906;BME280;47863;55.766;37.672;2023-04-22T06:01:27;99473.44;;;17.44;35.01
61906;BME280;47863;55.766;37.672;2023-04-22T06:03:52;99466.97;;;17.45;35.14
61906;BME280;47863;55.766;37.672;2023-04-22T06:06:18;99467.91;;;17.71;34.75
61906;BME280;47863;55.766;37.672;2023-04-22T06:08:44;99461.22;;;18.19;34.15
61906;BME280;47863;55.766;37.672;2023-04-22T06:11:09;99466.28;;;18.66;33.45
61906;BME280;47863;55.766;37.672;2023-04-22T06:13:35;99464.88;;;19.07;33.23
61906;BME280;47863;55.766;37.672;2023-04-22T06:16:01;99453.41;;;19.60;32.78
61906;BME280;47863;55.766;37.672;2023-04-22T06:18:27;99466.13;;;20.27;31.90
61906;BME280;47863;55.766;37.672;2023-04-22T06:20:53;99465.53;;;20.78;31.40
61906;BME280;47863;55.766;37.672;2023-04-22T06:23:18;99463.03;;;21.12;31.17
61906;BME280;47863;55.766;37.672;2023-04-22T06:25:44;99432.38;;;21.05;30.98
61906;BME280;47863;55.766;37.672;2023-04-22T06:28:11;99385.19;;;20.88;31.17
61906;BME280;47863;55.766;37.672;2023-04-22T06:30:36;99440.00;;;21.55;30.95
61906;BME280;47863;55.766;37.672;2023-04-22T06:33:02;99453.59;;;21.96;30.60
61906;BME280;47863;55.766;37.672;2023-04-22T06:35:28;99468.75;;;22.32;30.31
61906;BME280;47863;55.766;37.672;2023-04-22T06:37:53;99455.59;;;22.46;30.02
61906;BME280;47863;55.766;37.672;2023-04-22T06:40:19;99457.56;;;22.85;29.41
61906;BME280;47863;55.766;37.672;2023-04-22T06:42:45;99454.25;;;23.61;28.72
61906;BME280;47863;55.766;37.672;2023-04-22T06:45:10;99452.88;;;24.34;28.22
61906;BME280;47863;55.766;37.672;2023-04-22T06:47:40;99436.97;;;25.01;26.95
61906;BME280;47863;55.766;37.672;2023-04-22T06:50:07;99435.25;;;26.31;26.25
61906;BME280;47863;55.766;37.672;2023-04-22T06:52:34;99454.06;;;28.45;24.67
61906;BME280;47863;55.766;37.672;2023-04-22T06:54:59;99449.53;;;29.23;24.26
61906;BME280;47863;55.766;37.672;2023-04-22T06:57:28;99455.31;;;28.29;24.66
61906;BME280;47863;55.766;37.672;2023-04-22T06:59:54;99435.53;;;26.86;25.87
61906;BME280;47863;55.766;37.672;2023-04-22T07:02:20;99435.78;;;26.13;26.30
61906;BME280;47863;55.766;37.672;2023-04-22T07:04:46;99442.69;;;26.67;25.09
61906;BME280;47863;55.766;37.672;2023-04-22T07:07:12;99443.16;;;28.70;23.48
61906;BME280;47863;55.766;37.672;2023-04-22T07:09:38;99431.03;;;30.10;21.32
61906;BME280;47863;55.766;37.672;2023-04-22T07:12:04;99445.78;;;29.81;21.97
61906;BME280;47863;55.766;37.672;2023-04-22T07:14:29;99444.81;;;30.48;21.45
61906;BME280;47863;55.766;37.672;2023-04-22T07:16:56;99436.00;;;32.04;20.12
61906;BME280;47863;55.766;37.672;2023-04-22T07:19:21;99398.88;;;31.91;19.62
61906;BME280;47863;55.766;37.672;2023-04-22T07:21:47;99454.81;;;32.74;19.33
61906;BME280;47863;55.766;37.672;2023-04-22T07:24:13;99424.06;;;33.91;18.71
61906;BME280;47863;55.766;37.672;2023-04-22T07:26:39;99456.91;;;34.59;17.78
61906;BME280;47863;55.766;37.672;2023-04-22T07:29:05;99453.31;;;33.31;18.62
61906;BME280;47863;55.766;37.672;2023-04-22T07:31:34;99455.44;;;31.34;19.73
61906;BME280;47863;55.766;37.672;2023-04-22T07:33:59;99446.75;;;29.72;20.22
61906;BME280;47863;55.766;37.672;2023-04-22T07:36:25;99457.75;;;30.34;19.53
61906;BME280;47863;55.766;37.672;2023-04-22T07:38:51;99446.19;;;31.80;18.77
61906;BME280;47863;55.766;37.672;2023-04-22T07:41:17;99451.00;;;33.82;17.56
61906;BME280;47863;55.766;37.672;2023-04-22T07:43:42;99455.31;;;35.52;16.61
61906;BME280;47863;55.766;37.672;2023-04-22T07:46:08;99457.03;;;35.65;16.32
61906;BME280;47863;55.766;37.672;2023-04-22T07:48:34;99421.28;;;35.08;16.36
61906;BME280;47863;55.766;37.672;2023-04-22T07:50:59;99451.38;;;34.24;16.40
61906;BME280;47863;55.766;37.672;2023-04-22T07:53:25;99456.06;;;33.22;16.82
61906;BME280;47863;55.766;37.672;2023-04-22T07:55:50;99459.84;;;31.63;17.42
61906;BME280;47863;55.766;37.672;2023-04-22T07:58:16;99433.31;;;30.22;18.19
61906;BME280;47863;55.766;37.672;2023-04-22T08:00:42;99437.00;;;29.07;18.68
61906;BME280;47863;55.766;37.672;2023-04-22T08:03:07;99460.44;;;28.01;18.77
61906;BME280;47863;55.766;37.672;2023-04-22T08:05:33;99455.31;;;26.83;19.19
61906;BME280;47863;55.766;37.672;2023-04-22T08:07:59;99432.34;;;25.60;19.74
61906;BME280;47863;55.766;37.672;2023-04-22T08:10:25;99454.91;;;24.82;20.14
61906;BME280;47863;55.766;37.672;2023-04-22T08:12:50;99455.72;;;23.90;20.71
61906;BME280;47863;55.766;37.672;2023-04-22T08:15:16;99457.00;;;23.16;20.90
61906;BME280;47863;55.766;37.672;2023-04-22T08:17:42;99456.94;;;22.77;20.81
61906;BME280;47863;55.766;37.672;2023-04-22T08:20:08;99463.81;;;22.63;21.05
61906;BME280;47863;55.766;37.672;2023-04-22T08:22:34;99460.56;;;23.83;19.92
61906;BME280;47863;55.766;37.672;2023-04-22T08:25:00;99450.75;;;24.42;19.58
61906;BME280;47863;55.766;37.672;2023-04-22T08:27:26;99441.66;;;24.36;19.33
61906;BME280;47863;55.766;37.672;2023-04-22T08:29:52;99448.28;;;24.13;19.71
61906;BME280;47863;55.766;37.672;2023-04-22T08:32:17;99450.94;;;24.03;19.74
61906;BME280;47863;55.766;37.672;2023-04-22T08:34:47;99432.25;;;24.54;19.74
61906;BME280;47863;55.766;37.672;2023-04-22T08:37:12;99457.53;;;26.61;18.59
61906;BME280;47863;55.766;37.672;2023-04-22T08:39:38;99459.59;;;28.80;17.28
61906;BME280;47863;55.766;37.672;2023-04-22T08:42:04;99451.72;;;28.97;17.48
61906;BME280;47863;55.766;37.672;2023-04-22T08:44:30;99446.75;;;28.31;17.95
61906;BME280;47863;55.766;37.672;2023-04-22T08:46:56;99448.63;;;27.36;18.11
61906;BME280;47863;55.766;37.672;2023-04-22T08:49:23;99454.22;;;26.33;18.83
61906;BME280;47863;55.766;37.672;2023-04-22T08:51:49;99451.72;;;25.38;19.65
61906;BME280;47863;55.766;37.672;2023-04-22T08:54:15;99431.19;;;24.55;19.78
61906;BME280;47863;55.766;37.672;2023-04-22T08:56:43;99455.34;;;24.09;19.84
61906;BME280;47863;55.766;37.672;2023-04-22T08:59:12;99442.38;;;23.50;20.21
61906;BME280;47863;55.766;37.672;2023-04-22T09:01:41;99448.94;;;23.27;20.37
61906;BME280;47863;55.766;37.672;2023-04-22T09:04:13;99417.66;;;23.17;20.16
61906;BME280;47863;55.766;37.672;2023-04-22T09:06:39;99441.34;;;24.32;19.42
61906;BME280;47863;55.766;37.672;2023-04-22T09:09:05;99436.72;;;25.56;18.83
61906;BME280;47863;55.766;37.672;2023-04-22T09:11:33;99444.56;;;27.83;17.41
61906;BME280;47863;55.766;37.672;2023-04-22T09:13:58;99442.28;;;30.14;16.30
61906;BME280;47863;55.766;37.672;2023-04-22T09:16:24;99444.41;;;32.35;15.67
61906;BME280;47863;55.766;37.672;2023-04-22T09:18:50;99442.38;;;32.72;15.56
61906;BME280;47863;55.766;37.672;2023-04-22T09:21:16;99447.16;;;31.98;15.96
61906;BME280;47863;55.766;37.672;2023-04-22T09:23:50;99442.03;;;30.81;16.54
61906;BME280;47863;55.766;37.672;2023-04-22T09:26:22;99440.06;;;29.30;17.39
61906;BME280;47863;55.766;37.672;2023-04-22T09:28:58;99421.97;;;27.91;18.03
61906;BME280;47863;55.766;37.672;2023-04-22T09:31:26;99435.16;;;27.29;18.49
61906;BME280;47863;55.766;37.672;2023-04-22T09:33:57;99435.50;;;26.91;18.21
61906;BME280;47863;55.766;37.672;2023-04-22T09:36:27;99451.50;;;26.74;17.89
61906;BME280;47863;55.766;37.672;2023-04-22T09:38:57;99444.81;;;27.86;17.60
61906;BME280;47863;55.766;37.672;2023-04-22T09:41:32;99421.59;;;30.49;16.11
61906;BME280;47863;55.766;37.672;2023-04-22T09:43:59;99427.06;;;33.46;14.60
61906;BME280;47863;55.766;37.672;2023-04-22T09:46:26;99443.03;;;35.23;13.52
61906;BME280;47863;55.766;37.672;2023-04-22T09:48:56;99452.44;;;35.40;13.60
61906;BME280;47863;55.766;37.672;2023-04-22T09:51:23;99441.38;;;36.66;12.76
61906;BME280;47863;55.766;37.672;2023-04-22T09:54:03;99443.91;;;38.47;11.26
61906;BME280;47863;55.766;37.672;2023-04-22T09:56:47;99436.47;;;40.14;11.88
61906;BME280;47863;55.766;37.672;2023-04-22T09:59:34;99438.81;;;41.39;11.33
61906;BME280;47863;55.766;37.672;2023-04-22T10:02:00;99437.50;;;40.05;11.38
61906;BME280;47863;55.766;37.672;2023-04-22T10:04:28;99431.69;;;37.58;12.90
61906;BME280;47863;55.766;37.672;2023-04-22T10:06:55;99435.34;;;35.20;13.38
61906;BME280;47863;55.766;37.672;2023-04-22T10:09:22;99435.97;;;32.94;14.49
61906;BME280;47863;55.766;37.672;2023-04-22T10:11:52;99437.47;;;30.90;14.56
61906;BME280;47863;55.766;37.672;2023-04-22T10:14:21;99439.94;;;29.40;15.52
61906;BME280;47863;55.766;37.672;2023-04-22T10:16:47;99417.03;;;27.83;16.14
61906;BME280;47863;55.766;37.672;2023-04-22T10:19:22;99430.59;;;26.78;16.55
61906;BME280;47863;55.766;37.672;2023-04-22T10:21:52;99409.91;;;25.78;17.03
61906;BME280;47863;55.766;37.672;2023-04-22T10:24:19;99415.00;;;25.44;17.27
61906;BME280;47863;55.766;37.672;2023-04-22T10:26:48;99430.31;;;26.90;16.30
61906;BME280;47863;55.766;37.672;2023-04-22T10:29:17;99424.44;;;29.44;14.88
61906;BME280;47863;55.766;37.672;2023-04-22T10:31:54;99399.63;;;31.82;13.84
61906;BME280;47863;55.766;37.672;2023-04-22T10:34:23;99423.09;;;34.13;12.86
61906;BME280;47863;55.766;37.672;2023-04-22T10:37:04;99424.44;;;35.66;11.81
61906;BME280;47863;55.766;37.672;2023-04-22T10:39:30;99429.03;;;36.12;12.32
61906;BME280;47863;55.766;37.672;2023-04-22T10:42:07;99421.63;;;36.17;12.31
61906;BME280;47863;55.766;37.672;2023-04-22T10:47:24;99420.59;;;33.19;12.45
61906;BME280;47863;55.766;37.672;2023-04-22T10:49:51;99423.97;;;31.44;14.30
61906;BME280;47863;55.766;37.672;2023-04-22T10:52:27;99422.13;;;29.75;15.07
61906;BME280;47863;55.766;37.672;2023-04-22T10:57:20;99409.06;;;27.26;15.72
61906;BME280;47863;55.766;37.672;2023-04-22T10:59:52;99428.91;;;26.87;15.70
61906;BME280;47863;55.766;37.672;2023-04-22T11:02:19;99439.63;;;26.89;15.99
61906;BME280;47863;55.766;37.672;2023-04-22T11:04:45;99424.81;;;28.49;15.07
61906;BME280;47863;55.766;37.672;2023-04-22T11:09:58;99421.47;;;32.66;12.85
61906;BME280;47863;55.766;37.672;2023-04-22T11:15:16;99417.19;;;35.73;12.01
61906;BME280;47863;55.766;37.672;2023-04-22T11:17:45;99417.00;;;36.87;11.38
61906;BME280;47863;55.766;37.672;2023-04-22T11:20:12;99427.41;;;35.90;11.84
61906;BME280;47863;55.766;37.672;2023-04-22T11:22:41;99427.31;;;34.45;12.09
61906;BME280;47863;55.766;37.672;2023-04-22T11:25:07;99406.91;;;34.32;12.29
61906;BME280;47863;55.766;37.672;2023-04-22T11:27:37;99410.84;;;35.34;11.68
61906;BME280;47863;55.766;37.672;2023-04-22T11:30:05;99404.00;;;35.32;11.80
61906;BME280;47863;55.766;37.672;2023-04-22T11:32:40;99407.06;;;33.92;12.51
61906;BME280;47863;55.766;37.672;2023-04-22T11:35:08;99402.31;;;32.10;13.02
61906;BME280;47863;55.766;37.672;2023-04-22T11:37:44;99408.06;;;30.48;13.74
61906;BME280;47863;55.766;37.672;2023-04-22T11:40:13;99412.16;;;29.98;13.92
61906;BME280;47863;55.766;37.672;2023-04-22T11:42:39;99393.41;;;29.33;14.00
61906;BME280;47863;55.766;37.672;2023-04-22T11:45:06;99403.06;;;28.82;14.38
61906;BME280;47863;55.766;37.672;2023-04-22T11:47:32;99400.25;;;29.17;13.91
61906;BME280;47863;55.766;37.672;2023-04-22T11:50:01;99385.69;;;30.63;13.05
61906;BME280;47863;55.766;37.672;2023-04-22T11:52:58;99402.25;;;32.47;12.56
61906;BME280;47863;55.766;37.672;2023-04-22T11:55:37;99404.94;;;33.98;11.94
61906;BME280;47863;55.766;37.672;2023-04-22T12:00:42;99391.03;;;35.87;11.04
61906;BME280;47863;55.766;37.672;2023-04-22T12:03:17;99407.81;;;35.78;10.59
61906;BME280;47863;55.766;37.672;2023-04-22T12:05:54;99354.13;;;33.80;11.07
61906;BME280;47863;55.766;37.672;2023-04-22T12:08:25;99402.75;;;32.49;12.66
61906;BME280;47863;55.766;37.672;2023-04-22T12:13:19;99404.44;;;33.21;11.79
61906;BME280;47863;55.766;37.672;2023-04-22T12:15:46;99388.44;;;33.93;11.78
61906;BME280;47863;55.766;37.672;2023-04-22T12:18:12;99409.63;;;34.59;11.23
61906;BME280;47863;55.766;37.672;2023-04-22T12:20:41;99397.66;;;34.84;11.11
61906;BME280;47863;55.766;37.672;2023-04-22T12:23:11;99368.97;;;34.92;11.44
61906;BME280;47863;55.766;37.672;2023-04-22T12:25:37;99393.31;;;34.13;11.38
61906;BME280;47863;55.766;37.672;2023-04-22T12:28:03;99392.47;;;32.72;12.25
61906;BME280;47863;55.766;37.672;2023-04-22T12:30:28;99391.19;;;31.88;12.33
61906;BME280;47863;55.766;37.672;2023-04-22T12:32:54;99387.88;;;31.99;12.48
61906;BME280;47863;55.766;37.672;2023-04-22T12:35:20;99324.75;;;32.10;12.03
61906;BME280;47863;55.766;37.672;2023-04-22T12:37:46;99368.06;;;32.83;11.70
61906;BME280;47863;55.766;37.672;2023-04-22T12:40:11;99381.94;;;33.31;11.74
61906;BME280;47863;55.766;37.672;2023-04-22T12:42:37;99339.31;;;33.27;11.31
61906;BME280;47863;55.766;37.672;2023-04-22T12:45:03;99381.19;;;33.57;11.41
61906;BME280;47863;55.766;37.672;2023-04-22T12:47:33;99326.94;;;33.25;11.41
61906;BME280;47863;55.766;37.672;2023-04-22T12:49:58;99351.44;;;33.40;11.49
61906;BME280;47863;55.766;37.672;2023-04-22T12:52:26;99374.63;;;33.53;11.48
61906;BME280;47863;55.766;37.672;2023-04-22T12:54:51;99364.16;;;33.32;11.44
61906;BME280;47863;55.766;37.672;2023-04-22T12:57:17;99369.00;;;33.09;11.46
61906;BME280;47863;55.766;37.672;2023-04-22T12:59:42;99351.25;;;32.79;11.60
61906;BME280;47863;55.766;37.672;2023-04-22T13:02:11;99366.88;;;32.52;11.82
61906;BME280;47863;55.766;37.672;2023-04-22T13:04:37;99365.22;;;32.20;11.84
61906;BME280;47863;55.766;37.672;2023-04-22T13:07:03;99377.91;;;31.76;11.87